Time;durP1;ratioP1;P1;durP2;ratioP2;P2;SDS_P1;SDS_P2;PMS_P1;PMS_P2;Temp;Humidity;BMP_temperature;BMP_pressure;BME280_temperature;BME280_humidity;BME280_pressure;Samples;Min_cycle;Max_cycle;Signal;HPM_P1;HPM_P2
2021/06/06 00:00:43;;;;;;;1.88;1.02;;;15.30;84.10;;;14.29;81.26;96452.88;5009887;28;20033;-63
2021/06/06 00:03:17;;;;;;;;;;;15.40;83.70;;;14.27;80.65;96461.00;5011890;28;20026;-63
2021/06/06 00:05:50;;;;;;;1.95;1.10;;;15.40;83.90;;;14.30;80.29;96451.84;5025251;28;19932;-62
2021/06/06 00:08:15;;;;;;;1.70;1.10;;;15.40;84.20;;;14.31;78.55;96449.00;5037733;28;20056;-62
2021/06/06 00:10:42;;;;;;;1.85;1.08;;;15.40;83.70;;;14.30;79.42;96455.31;4986658;28;20496;-62
2021/06/06 00:13:08;;;;;;;1.88;1.20;;;15.30;84.10;;;14.31;79.58;96454.28;5023955;28;20029;-63
2021/06/06 00:15:33;;;;;;;2.22;1.10;;;15.40;84.40;;;14.31;80.38;96454.28;5025328;28;20068;-62
2021/06/06 00:17:59;;;;;;;1.40;1.00;;;15.30;84.30;;;14.34;80.14;96450.41;4993075;28;20033;-61
2021/06/06 00:20:27;;;;;;;1.48;0.85;;;15.40;84.40;;;14.34;79.53;96453.06;5019924;28;20041;-62
2021/06/06 00:22:54;;;;;;;1.42;1.00;;;15.40;84.10;;;14.35;80.10;96449.41;5047451;28;20022;-60
2021/06/06 00:25:20;;;;;;;1.20;0.90;;;15.40;84.10;;;14.34;79.96;96447.78;4999326;28;20037;-63
2021/06/06 00:27:46;;;;;;;1.55;1.00;;;15.40;84.00;;;14.35;79.44;96447.56;4994739;28;20076;-62
2021/06/06 00:30:13;;;;;;;2.55;1.10;;;15.50;83.90;;;14.37;79.79;96442.06;5024863;28;20032;-63
2021/06/06 00:32:38;;;;;;;1.77;1.05;;;15.50;84.00;;;14.36;80.10;96441.25;5027477;28;20065;-62
2021/06/06 00:35:06;;;;;;;1.70;1.13;;;15.40;84.40;;;14.36;80.11;96451.03;5012742;28;20061;-63
2021/06/06 00:37:32;;;;;;;3.13;1.13;;;15.40;84.20;;;14.34;79.51;96445.94;5009996;28;20037;-62
2021/06/06 00:39:57;;;;;;;1.10;0.93;;;15.30;84.20;;;14.34;79.47;96437.19;4998405;28;20064;-63
2021/06/06 00:42:26;;;;;;;1.77;1.00;;;15.40;84.30;;;14.37;79.99;96447.38;5008046;28;20044;-62
2021/06/06 00:44:52;;;;;;;1.40;0.90;;;15.40;84.40;;;14.38;79.66;96443.69;5009510;28;20469;-63
2021/06/06 00:47:18;;;;;;;3.72;1.27;;;15.50;84.00;;;14.33;80.63;96444.31;5008394;28;20043;-62
2021/06/06 00:49:44;;;;;;;2.05;1.30;;;15.30;84.40;;;14.28;80.44;96438.81;5025975;28;20125;-62
2021/06/06 00:52:12;;;;;;;2.17;1.00;;;15.30;84.60;;;14.29;80.41;96435.16;5007466;28;20177;-63
2021/06/06 00:54:43;;;;;;;1.10;0.95;;;15.30;84.50;;;14.32;80.75;96439.22;5006840;28;20064;-63
2021/06/06 00:57:23;;;;;;;2.38;1.00;;;15.50;84.20;;;14.33;80.98;96439.03;4988228;28;20029;-63
2021/06/06 01:00:03;;;;;;;1.50;1.00;;;15.40;84.20;;;14.31;80.60;96438.41;5005879;28;20075;-62
2021/06/06 01:02:29;;;;;;;2.03;1.13;;;15.40;84.30;;;14.30;79.98;96435.97;5013044;28;20045;-63
2021/06/06 01:04:55;;;;;;;1.48;1.10;;;15.30;84.30;;;14.26;80.16;96435.56;4987916;28;20513;-62
2021/06/06 01:07:20;;;;;;;1.33;1.02;;;15.30;84.60;;;14.27;79.37;96436.38;5015417;28;20688;-62
2021/06/06 01:09:46;;;;;;;1.92;1.30;;;15.30;84.70;;;14.28;79.74;96427.44;5014793;28;21559;-61
2021/06/06 01:12:18;;;;;;;2.05;0.82;;;15.40;84.40;;;14.24;81.38;96423.53;5010220;28;20117;-63
2021/06/06 01:15:16;;;;;;;2.83;1.20;;;15.20;84.20;;;14.25;82.30;96428.63;4994386;28;20025;-63
2021/06/06 01:18:02;;;;;;;3.63;1.10;;;15.30;84.40;;;14.25;82.01;96418.03;5010570;28;20034;-61
2021/06/06 01:20:53;;;;;;;1.25;0.85;;;15.30;84.70;;;14.26;82.55;96418.88;5023552;28;20037;-63
2021/06/06 01:23:37;;;;;;;1.85;1.35;;;15.30;84.40;;;14.25;81.48;96422.53;5011813;28;20033;-62
2021/06/06 01:26:30;;;;;;;3.38;1.20;;;15.30;84.50;;;14.22;82.52;96413.16;5020572;28;20042;-62
2021/06/06 01:29:05;;;;;;;1.77;1.15;;;15.30;85.00;;;14.20;81.99;96409.91;4996861;28;20550;-63
2021/06/06 01:31:31;;;;;;;1.63;1.08;;;15.10;85.10;;;14.19;81.46;96402.19;5007939;28;20052;-63
2021/06/06 01:33:59;;;;;;;2.00;1.38;;;15.20;85.20;;;14.16;81.48;96413.97;5011236;28;20113;-62
2021/06/06 01:36:31;;;;;;;2.58;1.30;;;15.10;85.30;;;14.11;82.25;96411.13;5017306;28;20026;-64
2021/06/06 01:39:01;;;;;;;3.10;1.48;;;15.10;85.80;;;14.12;82.42;96417.25;5007735;28;20599;-63
2021/06/06 01:41:34;;;;;;;2.07;1.33;;;15.10;85.50;;;14.12;80.99;96417.25;5018177;28;20064;-63
2021/06/06 01:43:59;;;;;;;1.88;1.30;;;15.10;85.50;;;14.09;81.01;96410.53;5001253;28;20116;-63
2021/06/06 01:46:42;;;;;;;2.17;1.63;;;15.20;85.70;;;14.12;82.20;96404.00;5008583;28;20116;-63
2021/06/06 01:49:09;;;;;;;2.47;1.60;;;15.20;85.60;;;14.13;81.55;96403.00;4986741;28;20034;-64
2021/06/06 01:51:38;;;;;;;2.30;1.52;;;15.30;85.30;;;14.15;82.16;96404.41;5010548;28;20040;-62
2021/06/06 01:54:07;;;;;;;1.40;1.30;;;15.30;85.30;;;14.16;82.51;96402.59;4988287;28;20038;-63
2021/06/06 01:56:35;;;;;;;1.92;1.52;;;15.20;85.50;;;14.13;81.84;96397.72;4992817;28;20053;-62
2021/06/06 01:59:21;;;;;;;1.90;1.50;;;15.10;85.50;;;14.13;83.21;96405.66;4987898;28;20038;-62
2021/06/06 02:01:47;;;;;;;3.35;1.98;;;15.10;85.80;;;14.10;80.82;96399.75;5008460;28;20109;-63
2021/06/06 02:04:13;;;;;;;3.63;1.58;;;15.10;85.90;;;14.08;82.27;96393.84;4990444;28;20121;-63
2021/06/06 02:07:01;;;;;;;2.05;1.40;;;15.10;86.10;;;14.13;83.09;96403.00;5008813;28;20037;-63
2021/06/06 02:09:30;;;;;;;2.53;1.70;;;15.20;85.80;;;14.10;82.53;96398.94;5005964;28;20042;-62
2021/06/06 02:12:00;;;;;;;2.90;1.58;;;15.20;85.90;;;14.10;83.18;96394.44;5019374;28;20030;-61
2021/06/06 02:14:29;;;;;;;2.28;1.60;;;15.20;85.60;;;14.09;81.97;96398.13;4992376;28;20021;-63
2021/06/06 02:16:58;;;;;;;2.40;1.65;;;15.10;85.70;;;14.06;81.97;96403.81;5012316;28;20030;-62
2021/06/06 02:19:25;;;;;;;1.60;1.30;;;15.10;86.00;;;14.00;82.03;96404.59;4994311;28;20033;-63
2021/06/06 02:21:56;;;;;;;2.45;1.60;;;15.00;86.00;;;13.98;82.66;96406.66;4976759;28;20037;-63
2021/06/06 02:24:22;;;;;;;;;;;15.00;86.60;;;14.01;84.40;96406.22;4995923;28;20029;-62
2021/06/06 02:26:55;;;;;;;1.90;1.40;;;15.10;86.40;;;14.04;83.25;96405.84;4993594;28;19967;-63
2021/06/06 02:29:40;;;;;;;3.20;1.63;;;15.20;86.10;;;14.05;84.21;96396.91;4991000;28;20029;-63
2021/06/06 02:32:17;;;;;;;2.13;1.60;;;15.20;85.80;;;14.06;83.47;96393.25;5007945;28;20462;-64
2021/06/06 02:34:55;;;;;;;3.10;1.75;;;15.30;85.90;;;14.08;83.79;96393.84;5018062;28;20507;-64
2021/06/06 02:37:51;;;;;;;2.90;1.58;;;15.30;86.10;;;14.12;83.16;96394.25;5009156;28;20030;-63
2021/06/06 02:40:34;;;;;;;5.07;1.75;;;15.30;85.50;;;14.11;84.04;96395.25;5023289;28;20526;-65
2021/06/06 02:43:11;;;;;;;2.35;1.23;;;15.30;85.70;;;14.10;83.57;96388.34;5008893;28;20064;-63
2021/06/06 02:45:37;;;;;;;2.30;1.50;;;15.30;86.00;;;14.10;82.07;96389.16;5026727;28;20037;-64
2021/06/06 02:48:18;;;;;;;1.63;1.20;;;15.30;85.40;;;14.13;83.68;96392.41;4984773;28;20096;-65
2021/06/06 02:50:44;;;;;;;1.38;1.08;;;15.30;85.60;;;14.09;82.28;96382.25;5020494;28;20029;-64
2021/06/06 02:53:26;;;;;;;1.70;1.20;;;15.20;85.50;;;14.08;83.15;96383.25;5025729;28;20060;-64
2021/06/06 02:55:58;;;;;;;2.13;1.58;;;15.20;85.50;;;13.97;83.29;96377.75;5007442;28;20472;-63
2021/06/06 02:58:29;;;;;;;2.80;1.45;;;14.90;86.60;;;13.93;82.74;96385.28;5022501;28;20046;-63
2021/06/06 03:01:00;;;;;;;2.60;1.60;;;15.00;86.90;;;13.93;84.49;96387.13;5004140;28;20083;-63
2021/06/06 03:03:32;;;;;;;3.50;1.77;;;15.00;86.60;;;13.92;83.40;96391.59;5007057;28;20574;-63
2021/06/06 03:05:59;;;;;;;2.80;1.60;;;15.00;86.60;;;13.87;83.11;96394.03;5010954;28;20088;-63
2021/06/06 03:08:25;;;;;;;2.28;1.83;;;14.90;86.70;;;13.84;82.54;96386.50;4990661;28;20040;-63
2021/06/06 03:10:51;;;;;;;2.00;1.73;;;15.00;86.90;;;13.78;83.18;96382.00;4984992;28;20034;-64
2021/06/06 03:13:45;;;;;;;2.95;1.50;;;14.80;87.50;;;13.82;85.40;96383.25;5008737;28;20053;-64
2021/06/06 03:16:11;;;;;;;3.75;1.60;;;15.00;87.30;;;13.80;82.57;96385.25;5005511;28;20079;-64
2021/06/06 03:18:38;;;;;;;3.33;1.75;;;15.00;87.20;;;13.82;84.19;96383.25;5024314;28;20419;-63
2021/06/06 03:21:22;;;;;;;4.75;1.83;;;15.10;87.10;;;13.87;84.91;96378.16;5025236;28;20045;-63
2021/06/06 03:24:02;;;;;;;2.15;1.75;;;15.10;86.80;;;13.86;84.85;96388.94;4997982;28;20049;-62
2021/06/06 03:26:27;;;;;;;2.55;1.70;;;15.00;86.70;;;13.83;83.53;96381.44;5024874;28;20056;-63
2021/06/06 03:28:54;;;;;;;1.63;1.52;;;14.90;87.10;;;13.83;83.44;96381.44;4990586;28;20124;-63
2021/06/06 03:31:26;;;;;;;2.97;1.83;;;15.00;87.40;;;13.81;83.85;96379.00;5011119;28;20029;-64
2021/06/06 03:33:55;;;;;;;3.10;1.90;;;14.90;87.30;;;13.79;83.60;96379.16;5003974;28;20084;-63
2021/06/06 03:36:26;;;;;;;2.83;2.00;;;14.90;87.50;;;13.77;84.42;96386.47;5012237;28;20053;-64
2021/06/06 03:38:52;;;;;;;3.85;2.10;;;14.90;87.60;;;13.82;83.63;96385.09;5006445;28;20507;-63
2021/06/06 03:41:19;;;;;;;1.98;1.77;;;15.00;87.10;;;13.83;84.11;96392.81;5013022;28;20049;-65
2021/06/06 03:43:44;;;;;;;2.10;1.60;;;15.00;87.20;;;13.82;83.70;96385.91;5007419;28;20068;-64
2021/06/06 03:46:10;;;;;;;2.47;1.83;;;15.00;87.30;;;13.85;84.06;96385.50;5007378;28;20396;-64
2021/06/06 03:48:36;;;;;;;2.05;1.65;;;15.10;87.20;;;13.87;84.20;96382.66;5018845;28;20041;-63
2021/06/06 03:51:02;;;;;;;3.05;1.73;;;15.10;87.00;;;13.91;83.83;96389.97;5007888;28;20081;-63
2021/06/06 03:53:28;;;;;;;2.60;2.00;;;15.10;86.90;;;13.90;84.25;96377.75;4996035;28;20117;-64
2021/06/06 03:55:54;;;;;;;3.63;2.05;;;15.10;86.80;;;13.88;84.36;96377.16;5027360;28;20051;-63
2021/06/06 03:58:20;;;;;;;3.33;2.20;;;15.10;87.10;;;13.88;84.06;96373.69;5028206;28;20466;-63
2021/06/06 04:00:47;;;;;;;3.88;1.95;;;15.10;87.10;;;13.87;84.47;96372.88;5010554;28;20061;-62
2021/06/06 04:03:14;;;;;;;2.45;1.67;;;15.10;87.00;;;13.89;84.13;96381.41;5025571;28;20042;-62
2021/06/06 04:05:40;;;;;;;2.88;2.05;;;15.10;86.90;;;13.90;83.96;96377.75;5010114;28;20128;-62
2021/06/06 04:08:06;;;;;;;3.08;1.90;;;15.20;87.10;;;13.90;84.17;96372.47;5011285;28;20139;-62
2021/06/06 04:10:33;;;;;;;2.47;1.80;;;15.10;87.00;;;13.94;84.38;96372.88;4996236;28;20034;-62
2021/06/06 04:12:59;;;;;;;1.85;1.50;;;15.30;86.80;;;13.94;84.22;96373.69;4996052;28;20095;-61
2021/06/06 04:15:24;;;;;;;3.33;1.77;;;15.10;86.60;;;13.92;84.18;96375.72;5021779;28;20026;-61
2021/06/06 04:17:50;;;;;;;2.00;1.40;;;15.10;86.70;;;13.89;84.60;96375.31;5006834;28;20045;-61
2021/06/06 04:20:17;;;;;;;2.55;1.48;;;15.10;87.00;;;13.87;83.50;96367.59;5026110;28;20060;-62
2021/06/06 04:22:43;;;;;;;3.28;1.90;;;15.10;87.10;;;13.85;83.98;96369.63;5004227;28;20079;-62
2021/06/06 04:25:11;;;;;;;1.88;1.38;;;15.10;87.40;;;13.86;84.62;96381.03;4993003;28;20123;-62
2021/06/06 04:27:36;;;;;;;2.42;1.48;;;15.10;87.10;;;13.85;84.65;96374.91;5008376;28;20071;-62
2021/06/06 04:30:04;;;;;;;1.83;1.38;;;15.10;87.10;;;13.84;84.71;96373.28;5026769;28;20048;-62
2021/06/06 04:32:30;;;;;;;2.67;1.50;;;15.00;87.30;;;13.86;84.20;96376.53;4989802;28;20214;-62
2021/06/06 04:34:56;;;;;;;1.70;1.30;;;15.10;86.90;;;13.88;84.97;96373.69;4982319;28;20125;-62
2021/06/06 04:37:22;;;;;;;3.88;1.75;;;15.20;86.90;;;13.88;83.86;96382.44;5025967;28;20037;-61
2021/06/06 04:39:47;;;;;;;3.05;1.73;;;15.10;86.80;;;13.90;84.37;96379.59;5022308;28;20037;-62
2021/06/06 04:42:18;;;;;;;2.33;1.60;;;15.20;86.90;;;13.92;84.96;96382.84;5012139;28;20037;-62
2021/06/06 04:44:44;;;;;;;1.85;1.40;;;15.20;86.50;;;13.91;84.43;96379.38;4993093;28;20033;-62
2021/06/06 04:47:10;;;;;;;2.85;1.60;;;15.20;86.90;;;13.95;84.55;96375.31;5025683;28;20048;-63
2021/06/06 04:49:37;;;;;;;2.50;2.00;;;15.40;86.60;;;13.97;84.90;96372.47;5004998;28;20039;-64
2021/06/06 04:52:04;;;;;;;2.25;1.80;;;15.30;86.20;;;13.95;84.68;96375.31;5005467;28;20112;-69
2021/06/06 04:54:30;;;;;;;2.97;1.80;;;15.10;86.50;;;13.93;85.06;96377.34;5009541;28;20030;-73
2021/06/06 04:56:55;;;;;;;2.08;1.50;;;15.20;86.90;;;13.94;84.21;96378.97;5009839;28;20060;-69
2021/06/06 04:59:21;;;;;;;2.65;1.52;;;15.20;86.70;;;13.93;84.99;96377.34;5024174;28;20032;-68
2021/06/06 05:01:47;;;;;;;1.98;1.55;;;15.10;86.90;;;13.93;84.17;96377.34;5012829;28;20080;-69
2021/06/06 05:04:13;;;;;;;2.33;1.70;;;15.20;86.90;;;13.91;84.76;96375.94;5006838;28;20556;-64
2021/06/06 05:06:39;;;;;;;3.63;1.67;;;15.10;87.20;;;13.89;84.24;96373.50;4994780;28;20473;-63
2021/06/06 05:09:05;;;;;;;3.25;1.70;;;15.10;87.20;;;13.84;84.57;96373.28;4995677;28;20123;-62
2021/06/06 05:11:30;;;;;;;2.00;1.58;;;15.10;87.50;;;13.84;84.97;96378.59;4995459;28;20083;-63
2021/06/06 05:13:56;;;;;;;2.65;1.70;;;15.00;87.40;;;13.82;84.91;96370.03;4995806;28;20508;-62
2021/06/06 05:16:22;;;;;;;2.95;1.90;;;15.10;87.40;;;13.82;84.69;96375.31;5012362;28;20370;-61
2021/06/06 05:18:48;;;;;;;1.58;1.42;;;15.00;87.70;;;13.83;84.65;96374.31;4987899;28;20033;-62
2021/06/06 05:21:14;;;;;;;2.58;2.10;;;15.10;87.40;;;13.83;85.51;96376.94;4987451;28;20113;-62
2021/06/06 05:23:39;;;;;;;3.60;2.58;;;15.10;87.40;;;13.83;85.29;96374.31;5002229;28;20436;-62
2021/06/06 05:26:05;;;;;;;4.47;2.80;;;15.10;87.20;;;13.84;85.71;96375.94;4998082;28;20377;-63
2021/06/06 05:28:34;;;;;;;2.42;1.60;;;15.10;87.20;;;13.84;84.84;96372.47;4992140;28;20105;-63
2021/06/06 05:30:59;;;;;;;2.45;1.67;;;15.10;87.40;;;13.81;85.35;96381.63;4976233;28;20045;-64
2021/06/06 05:33:25;;;;;;;3.63;3.28;;;15.00;87.60;;;13.83;84.97;96376.94;4993484;28;20401;-64
2021/06/06 05:35:51;;;;;;;4.75;3.80;;;15.10;87.60;;;13.82;85.21;96364.75;5008458;28;20030;-63
2021/06/06 05:38:18;;;;;;;2.90;1.70;;;15.00;87.60;;;13.83;85.04;96369.03;5017107;28;20122;-65
2021/06/06 05:40:44;;;;;;;2.03;1.80;;;15.10;87.70;;;13.85;85.42;96374.91;5008446;28;20088;-64
2021/06/06 05:43:11;;;;;;;2.55;1.70;;;15.10;87.60;;;13.89;85.50;96378.78;4992468;28;20034;-63
2021/06/06 05:45:37;;;;;;;3.53;1.63;;;15.20;87.30;;;13.93;84.58;96381.81;4976025;28;20052;-64
2021/06/06 05:48:05;;;;;;;2.55;1.52;;;15.20;87.10;;;13.95;86.11;96379.78;5009645;28;20467;-64
2021/06/06 05:50:33;;;;;;;3.72;1.40;;;15.20;87.40;;;13.94;85.84;96378.97;4992651;28;20034;-63
2021/06/06 05:52:58;;;;;;;2.67;1.73;;;15.20;87.60;;;13.96;85.65;96382.22;4986618;28;20095;-64
2021/06/06 05:55:24;;;;;;;7.15;5.78;;;15.30;87.50;;;14.00;85.57;96380.81;4999420;28;20042;-64
2021/06/06 05:57:50;;;;;;;5.93;3.47;;;15.30;87.20;;;14.00;86.30;96383.44;5010950;28;20126;-64
2021/06/06 06:00:23;;;;;;;3.30;1.70;;;15.30;87.20;;;14.04;85.88;96383.88;5010617;28;20133;-68
2021/06/06 06:02:49;;;;;;;2.45;1.73;;;15.40;87.00;;;14.08;85.26;96380.63;5019864;28;20037;-70
2021/06/06 06:05:15;;;;;;;1.67;1.17;;;15.50;86.90;;;14.14;85.92;96383.47;5008658;28;20113;-68
2021/06/06 06:07:41;;;;;;;1.30;1.10;;;15.60;86.60;;;14.17;85.76;96389.16;4991718;28;20483;-68
2021/06/06 06:10:09;;;;;;;6.40;4.53;;;15.50;86.50;;;14.26;84.47;96387.13;5009148;28;20095;-69
2021/06/06 06:12:35;;;;;;;2.92;1.30;;;15.70;86.30;;;14.31;85.37;96379.38;4992471;28;20026;-68
2021/06/06 06:15:01;;;;;;;3.17;2.30;;;15.80;86.00;;;14.35;84.89;96388.53;4989124;28;20052;-69
2021/06/06 06:17:27;;;;;;;11.40;10.20;;;15.80;85.90;;;14.39;84.90;96389.75;4976055;28;20030;-67
2021/06/06 06:19:53;;;;;;;10.90;6.60;;;15.80;85.80;;;14.43;85.38;96387.50;4976140;28;20121;-69
2021/06/06 06:22:18;;;;;;;8.02;6.07;;;15.80;85.60;;;14.48;85.09;96390.38;4993575;28;20649;-68
2021/06/06 06:24:44;;;;;;;4.82;2.95;;;15.90;85.60;;;14.54;85.05;96379.78;4975766;28;20084;-68
2021/06/06 06:27:10;;;;;;;2.25;1.25;;;16.10;85.40;;;14.56;84.42;96388.34;4998126;28;20065;-68
2021/06/06 06:29:36;;;;;;;5.38;2.97;;;16.00;84.90;;;14.57;84.78;96379.38;4991268;28;20052;-66
2021/06/06 06:32:02;;;;;;;3.83;2.08;;;16.00;85.20;;;14.60;84.04;96381.59;4994433;28;20053;-69
2021/06/06 06:34:28;;;;;;;4.30;2.10;;;16.10;85.10;;;14.67;84.63;96373.63;5026859;28;20113;-65
2021/06/06 06:36:54;;;;;;;1.17;0.93;;;16.30;84.60;;;14.72;84.33;96381.78;5026289;28;20037;-67
2021/06/06 06:39:19;;;;;;;1.13;0.80;;;16.10;84.70;;;14.70;84.25;96381.16;5001687;28;20140;-67
2021/06/06 06:41:45;;;;;;;1.45;0.70;;;16.10;84.80;;;14.68;85.14;96385.84;5026379;28;20076;-64
2021/06/06 06:44:11;;;;;;;1.35;0.55;;;16.00;85.50;;;14.64;84.09;96389.94;5018405;28;20042;-65
2021/06/06 06:46:37;;;;;;;0.85;0.52;;;15.80;85.60;;;14.60;83.39;96384.25;5004028;28;20056;-64
2021/06/06 06:49:03;;;;;;;0.85;0.50;;;15.80;85.40;;;14.55;83.35;96381.41;5011768;28;20113;-64
2021/06/06 06:51:28;;;;;;;2.58;0.75;;;15.70;85.80;;;14.57;83.89;96389.16;5004876;28;20044;-63
2021/06/06 06:53:54;;;;;;;1.25;0.68;;;15.90;85.70;;;14.54;83.76;96379.78;5004559;28;20504;-63
2021/06/06 06:56:28;;;;;;;1.13;0.57;;;15.80;85.60;;;14.51;84.92;96385.50;5014094;28;20044;-64
2021/06/06 06:58:54;;;;;;;0.98;0.50;;;15.70;86.10;;;14.50;85.09;96383.88;5009531;28;20034;-63
2021/06/06 07:01:20;;;;;;;0.57;0.52;;;15.80;86.20;;;14.55;84.71;96385.91;5022302;28;20041;-65
2021/06/06 07:03:46;;;;;;;0.75;0.70;;;15.90;85.90;;;14.59;84.21;96379.97;5008233;28;20515;-68
2021/06/06 07:06:12;;;;;;;1.17;0.40;;;16.10;85.60;;;14.64;84.37;96374.06;4991308;28;20425;-68
2021/06/06 07:08:38;;;;;;;2.15;0.50;;;16.10;85.60;;;14.67;83.99;96386.88;5009504;28;20401;-69
2021/06/06 07:11:06;;;;;;;0.90;0.50;;;16.00;85.30;;;14.68;84.84;96381.38;5007605;28;20046;-67
2021/06/06 07:13:32;;;;;;;0.60;0.40;;;16.10;85.40;;;14.71;84.11;96380.16;4992794;28;20339;-67
2021/06/06 07:16:00;;;;;;;0.52;0.50;;;16.10;85.10;;;14.75;84.84;96383.22;4994797;28;20517;-68
2021/06/06 07:18:26;;;;;;;1.42;0.30;;;16.20;84.80;;;14.78;84.53;96382.78;4996285;28;20041;-66
2021/06/06 07:20:57;;;;;;;0.82;0.50;;;16.20;84.80;;;14.76;83.87;96380.34;4994739;28;20038;-68
2021/06/06 07:23:27;;;;;;;1.17;0.50;;;16.10;85.00;;;14.77;84.43;96373.22;5031618;28;20034;-69
2021/06/06 07:25:53;;;;;;;;;;;16.10;85.70;;;14.77;84.90;96378.50;5001441;28;20046;-66
2021/06/06 07:28:22;;;;;;;0.52;0.50;;;16.10;85.30;;;14.80;84.16;96383.41;5014117;28;20360;-67
2021/06/06 07:30:51;;;;;;;2.55;1.73;;;16.20;85.50;;;14.85;84.46;96375.63;5010848;28;20121;-67
2021/06/06 07:33:25;;;;;;;1.50;0.90;;;16.20;84.90;;;14.90;84.80;96379.28;4998160;28;20106;-68
2021/06/06 07:35:52;;;;;;;2.47;0.57;;;16.40;84.90;;;14.98;84.50;96375.59;5030593;28;20116;-68
2021/06/06 07:38:21;;;;;;;1.52;0.60;;;16.60;85.10;;;15.08;83.49;96367.19;5029576;28;20042;-66
2021/06/06 07:40:47;;;;;;;2.38;1.27;;;16.70;84.40;;;15.18;84.33;96370.22;4997414;28;20543;-67
2021/06/06 07:43:15;;;;;;;0.50;0.50;;;16.80;84.40;;;15.22;83.68;96366.94;5023660;28;20048;-68
2021/06/06 07:45:41;;;;;;;0.70;0.40;;;16.70;83.70;;;15.24;84.12;96372.03;5030203;28;20034;-68
2021/06/06 07:48:07;;;;;;;1.42;0.40;;;16.70;83.90;;;15.27;84.56;96366.28;5022463;28;20037;-67
2021/06/06 07:50:36;;;;;;;7.25;5.50;;;16.70;84.10;;;15.33;83.81;96374.19;5004316;28;20026;-69
2021/06/06 07:53:02;;;;;;;2.08;1.27;;;16.80;84.00;;;15.36;83.79;96367.66;5030317;28;20326;-67
2021/06/06 07:55:28;;;;;;;0.50;0.40;;;16.80;83.80;;;15.40;83.58;96374.19;5001334;28;20121;-69
2021/06/06 07:57:54;;;;;;;0.40;0.32;;;16.80;83.30;;;15.38;83.32;96375.41;5003727;28;20069;-66
2021/06/06 08:00:34;;;;;;;0.30;0.30;;;16.60;84.20;;;15.42;84.65;96366.03;5029710;28;20029;-67
2021/06/06 08:03:00;;;;;;;0.55;0.40;;;16.90;84.20;;;15.52;83.76;96366.34;4997413;28;20387;-69
2021/06/06 08:05:26;;;;;;;0.73;0.50;;;17.20;83.40;;;15.57;83.52;96375.28;4999214;28;20056;-68
2021/06/06 08:07:52;;;;;;;2.78;0.40;;;17.10;83.60;;;15.62;83.50;96369.41;4976551;28;20038;-69
2021/06/06 08:10:21;;;;;;;0.85;0.32;;;17.10;83.60;;;15.68;84.25;96371.19;5004828;28;20039;-67
2021/06/06 08:12:47;;;;;;;0.85;0.30;;;17.30;83.60;;;15.76;83.61;96365.63;5030445;28;20075;-68
2021/06/06 08:15:13;;;;;;;0.57;0.40;;;17.30;81.40;;;15.74;82.98;96365.03;5028580;28;20038;-67
2021/06/06 08:17:39;;;;;;;1.45;0.38;;;17.30;82.50;;;15.84;82.93;96361.88;5029183;28;20042;-63
2021/06/06 08:20:15;;;;;;;0.35;0.30;;;17.60;82.80;;;15.95;83.03;96360.38;4998207;28;20629;-64
2021/06/06 08:22:41;;;;;;;0.70;0.40;;;17.60;81.50;;;15.98;82.34;96362.59;5032508;28;20501;-65
2021/06/06 08:25:08;;;;;;;0.50;0.32;;;17.50;81.90;;;15.96;82.11;96367.31;5013675;28;20037;-65
2021/06/06 08:27:35;;;;;;;1.17;0.50;;;17.30;81.60;;;15.93;81.72;96369.38;5012720;28;20053;-68
2021/06/06 08:30:08;;;;;;;0.75;0.47;;;17.30;81.90;;;15.92;82.30;96361.63;5012444;28;20033;-68
2021/06/06 08:32:33;;;;;;;1.77;0.35;;;17.30;82.00;;;15.90;82.20;96369.81;4994143;28;20038;-66
2021/06/06 08:34:59;;;;;;;0.73;0.47;;;17.30;82.60;;;15.92;81.21;96361.63;5010352;28;20108;-67
2021/06/06 08:37:25;;;;;;;0.63;0.32;;;17.50;83.10;;;15.91;82.74;96370.63;4995179;28;20116;-68
2021/06/06 08:39:51;;;;;;;0.90;0.38;;;17.40;82.70;;;15.92;81.78;96365.09;4995918;28;20029;-68
2021/06/06 08:42:24;;;;;;;0.30;0.30;;;17.30;82.50;;;15.90;82.21;96364.50;5013370;28;20033;-66
2021/06/06 08:45:30;;;;;;;1.60;0.40;;;17.40;82.00;;;15.98;82.18;96359.94;4996971;28;20022;-68
2021/06/06 08:47:58;;;;;;;1.00;0.43;;;17.50;81.70;;;15.99;81.62;96354.44;5011093;28;20060;-61
2021/06/06 08:50:29;;;;;;;0.50;0.50;;;17.60;82.00;;;16.12;82.85;96364.13;4988333;28;20080;-62
2021/06/06 08:53:04;;;;;;;0.30;0.30;;;17.80;81.50;;;16.16;81.95;96357.34;4969435;28;20115;-63
2021/06/06 08:55:41;;;;;;;0.85;0.30;;;17.80;80.70;;;16.15;81.38;96366.34;4995370;28;20117;-63
2021/06/06 08:58:46;;;;;;;0.50;0.30;;;17.60;81.30;;;16.10;81.98;96364.34;5034999;28;20179;-62
2021/06/06 09:01:35;;;;;;;2.20;0.50;;;17.50;81.40;;;16.12;81.42;96364.13;5009142;28;20065;-63
2021/06/06 09:04:02;;;;;;;0.63;0.40;;;17.60;81.50;;;16.15;81.83;96367.16;4996103;28;20084;-64
2021/06/06 09:06:39;;;;;;;0.52;0.40;;;17.70;82.00;;;16.17;82.11;96364.28;4980539;28;20031;-62
2021/06/06 09:09:06;;;;;;;1.25;0.40;;;17.60;81.30;;;16.19;81.32;96364.88;4992134;28;20445;-62
2021/06/06 09:11:32;;;;;;;4.68;2.92;;;17.70;81.50;;;16.22;81.87;96373.22;4995952;28;20026;-63
2021/06/06 09:13:58;;;;;;;1.70;0.80;;;17.80;81.60;;;16.26;80.69;96364.81;4992702;28;20042;-62
2021/06/06 09:16:32;;;;;;;0.55;0.40;;;17.80;80.70;;;16.34;80.91;96367.22;4960822;28;20119;-63
2021/06/06 09:19:12;;;;;;;0.40;0.40;;;18.00;80.70;;;16.41;81.54;96360.00;4982672;28;20048;-63
2021/06/06 09:21:58;;;;;;;1.07;0.50;;;18.10;81.00;;;16.44;80.26;96367.50;4980910;28;20037;-64
2021/06/06 09:24:35;;;;;;;0.75;0.40;;;17.90;79.90;;;16.42;81.48;96361.63;4992724;28;20353;-63
2021/06/06 09:27:14;;;;;;;0.40;0.40;;;17.90;81.10;;;16.43;81.26;96357.91;4993840;28;20033;-62
2021/06/06 09:29:40;;;;;;;0.50;0.45;;;17.90;81.20;;;16.43;80.66;96361.38;4994711;28;20076;-64
2021/06/06 09:32:19;;;;;;;1.35;0.50;;;17.90;80.60;;;16.50;81.45;96375.41;5001220;28;20032;-63
2021/06/06 09:35:23;;;;;;;2.05;0.40;;;18.10;80.70;;;16.47;80.14;96365.22;4987872;28;20485;-63
2021/06/06 09:38:01;;;;;;;1.20;0.40;;;17.90;80.10;;;16.42;80.76;96373.03;4987312;28;20034;-63
2021/06/06 09:40:36;;;;;;;1.10;0.55;;;17.80;80.90;;;16.42;81.18;96370.38;5010280;28;20061;-63
2021/06/06 09:43:02;;;;;;;0.30;0.30;;;17.80;80.70;;;16.37;80.68;96364.94;5010969;28;20515;-62
2021/06/06 09:45:35;;;;;;;0.88;0.50;;;17.80;81.00;;;16.41;81.65;96366.09;5026891;28;20033;-63
2021/06/06 09:48:07;;;;;;;0.38;0.38;;;18.00;80.90;;;16.46;80.81;96368.91;4990613;28;20128;-63
2021/06/06 09:50:41;;;;;;;0.68;0.52;;;18.00;80.40;;;16.51;80.92;96377.03;4997806;28;20257;-63
2021/06/06 09:53:18;;;;;;;0.45;0.40;;;18.10;80.40;;;16.54;81.77;96371.31;4979763;28;20030;-65
2021/06/06 09:55:44;;;;;;;1.25;0.50;;;18.10;80.80;;;16.62;81.03;96366.72;5015289;28;20508;-64
2021/06/06 09:58:22;;;;;;;5.20;2.45;;;18.30;80.40;;;16.73;80.82;96366.81;5008788;28;20033;-65
2021/06/06 10:00:50;;;;;;;0.30;0.30;;;18.40;79.60;;;16.77;80.42;96365.38;5012708;28;20042;-65
2021/06/06 10:03:41;;;;;;;2.22;0.60;;;18.40;79.20;;;16.82;80.53;96367.38;5003898;28;20032;-65
2021/06/06 10:06:27;;;;;;;;;;;18.50;79.20;;;16.84;80.02;96365.28;4995817;28;20037;-65
2021/06/06 10:09:18;;;;;;;1.85;0.52;;;18.50;79.30;;;16.83;80.02;96363.69;5026484;28;19920;-66
2021/06/06 10:11:49;;;;;;;1.23;0.50;;;18.20;80.20;;;16.87;80.73;96366.69;5013220;28;20041;-66
2021/06/06 10:14:17;;;;;;;2.42;0.60;;;18.50;80.10;;;16.93;79.92;96358.63;5008663;28;20033;-68
2021/06/06 10:16:45;;;;;;;0.80;0.50;;;18.50;79.20;;;16.93;79.41;96363.94;4991883;28;20038;-65
2021/06/06 10:19:26;;;;;;;0.30;0.30;;;18.30;79.40;;;16.94;80.35;96370.06;5009362;28;20638;-64
2021/06/06 10:21:53;;;;;;;1.05;0.50;;;18.50;79.60;;;17.01;79.89;96366.34;4993029;28;20050;-64
2021/06/06 10:24:44;;;;;;;1.42;0.40;;;18.70;79.70;;;17.10;79.50;96370.31;4992603;28;20041;-70
2021/06/06 10:27:35;;;;;;;1.83;0.50;;;18.70;78.40;;;17.13;79.53;96369.84;5000022;28;20100;-72
2021/06/06 10:30:05;;;;;;;;;;;18.70;78.80;;;17.13;79.81;96369.84;5012039;28;20054;-70
2021/06/06 10:32:44;;;;;;;0.88;0.40;;;18.70;79.40;;;17.15;80.11;96370.44;5008900;28;20008;-70